sensor_id;sensor_type;location;lat;lon;timestamp;pressure;altitude;pressure_sealevel;temperature;humidity
21623;BME280;10973;46.706;12.340;2022-09-09T15:56:39;87222.22;;;18.59;52.51
21623;BME280;10973;46.706;12.340;2022-09-09T15:59:07;87223.91;;;18.52;52.18
21623;BME280;10973;46.706;12.340;2022-09-09T16:01:37;87230.00;;;18.37;52.38
21623;BME280;10973;46.706;12.340;2022-09-09T16:04:05;87240.59;;;18.24;52.64
21623;BME280;10973;46.706;12.340;2022-09-09T16:06:33;87248.53;;;18.12;52.95
21623;BME280;10973;46.706;12.340;2022-09-09T16:09:05;87241.19;;;18.00;53.25
21623;BME280;10973;46.706;12.340;2022-09-09T16:11:37;87242.34;;;17.83;53.24
21623;BME280;10973;46.706;12.340;2022-09-09T16:14:05;87242.00;;;17.64;53.65
21623;BME280;10973;46.706;12.340;2022-09-09T16:16:33;87253.63;;;17.54;54.29
21623;BME280;10973;46.706;12.340;2022-09-09T16:19:08;87251.50;;;17.46;55.09
21623;BME280;10973;46.706;12.340;2022-09-09T16:21:41;87247.84;;;17.40;55.17
21623;BME280;10973;46.706;12.340;2022-09-09T16:24:12;87253.00;;;17.31;55.19
21623;BME280;10973;46.706;12.340;2022-09-09T16:26:43;87248.19;;;17.22;55.42
21623;BME280;10973;46.706;12.340;2022-09-09T16:29:12;87252.44;;;17.20;55.85
21623;BME280;10973;46.706;12.340;2022-09-09T16:31:41;87252.59;;;17.13;55.49
21623;BME280;10973;46.706;12.340;2022-09-09T16:34:10;87262.53;;;17.08;55.27
21623;BME280;10973;46.706;12.340;2022-09-09T16:36:41;87265.34;;;17.01;55.36
21623;BME280;10973;46.706;12.340;2022-09-09T16:39:12;87255.66;;;16.91;55.25
21623;BME280;10973;46.706;12.340;2022-09-09T16:41:43;87259.63;;;16.83;55.79
21623;BME280;10973;46.706;12.340;2022-09-09T16:44:14;87257.84;;;16.77;56.19
21623;BME280;10973;46.706;12.340;2022-09-09T16:46:48;87256.81;;;16.71;56.51
21623;BME280;10973;46.706;12.340;2022-09-09T16:49:16;87253.19;;;16.61;56.86
21623;BME280;10973;46.706;12.340;2022-09-09T16:51:50;87252.94;;;16.56;57.10
21623;BME280;10973;46.706;12.340;2022-09-09T16:54:17;87248.75;;;16.55;57.43
21623;BME280;10973;46.706;12.340;2022-09-09T16:56:47;87245.00;;;16.52;57.69
21623;BME280;10973;46.706;12.340;2022-09-09T16:59:20;87240.88;;;16.48;57.92
21623;BME280;10973;46.706;12.340;2022-09-09T17:01:51;87247.41;;;16.43;57.64
21623;BME280;10973;46.706;12.340;2022-09-09T17:04:26;87251.38;;;16.35;57.33
21623;BME280;10973;46.706;12.340;2022-09-09T17:06:54;87254.41;;;16.33;57.25
21623;BME280;10973;46.706;12.340;2022-09-09T17:09:24;87246.50;;;16.30;57.39
21623;BME280;10973;46.706;12.340;2022-09-09T17:11:53;87247.72;;;16.25;57.36
21623;BME280;10973;46.706;12.340;2022-09-09T17:14:22;87253.59;;;16.17;57.81
21623;BME280;10973;46.706;12.340;2022-09-09T17:16:49;87261.94;;;16.15;57.91
21623;BME280;10973;46.706;12.340;2022-09-09T17:19:17;87252.88;;;16.13;57.94
21623;BME280;10973;46.706;12.340;2022-09-09T17:21:44;87263.91;;;16.11;58.42
21623;BME280;10973;46.706;12.340;2022-09-09T17:24:31;87265.47;;;16.09;58.71
21623;BME280;10973;46.706;12.340;2022-09-09T17:26:59;87268.97;;;16.06;58.74
21623;BME280;10973;46.706;12.340;2022-09-09T17:29:26;87263.28;;;16.04;58.82
21623;BME280;10973;46.706;12.340;2022-09-09T17:31:53;87270.91;;;16.02;58.94
21623;BME280;10973;46.706;12.340;2022-09-09T17:34:21;87269.75;;;16.03;58.94
21623;BME280;10973;46.706;12.340;2022-09-09T17:36:48;87279.06;;;15.91;59.11
21623;BME280;10973;46.706;12.340;2022-09-09T17:39:15;87270.44;;;15.84;59.11
21623;BME280;10973;46.706;12.340;2022-09-09T17:41:43;87273.56;;;15.79;59.23
21623;BME280;10973;46.706;12.340;2022-09-09T17:44:20;87277.00;;;15.76;59.39
21623;BME280;10973;46.706;12.340;2022-09-09T17:46:56;87280.44;;;15.76;59.32
21623;BME280;10973;46.706;12.340;2022-09-09T17:49:23;87277.44;;;15.74;59.09
21623;BME280;10973;46.706;12.340;2022-09-09T17:51:51;87282.31;;;15.76;59.10
21623;BME280;10973;46.706;12.340;2022-09-09T17:54:19;87288.84;;;15.71;59.38
21623;BME280;10973;46.706;12.340;2022-09-09T17:56:48;87288.53;;;15.65;59.95
21623;BME280;10973;46.706;12.340;2022-09-09T17:59:17;87292.72;;;15.66;59.95
21623;BME280;10973;46.706;12.340;2022-09-09T18:01:47;87295.41;;;15.63;60.32
21623;BME280;10973;46.706;12.340;2022-09-09T18:04:16;87295.81;;;15.61;60.32
21623;BME280;10973;46.706;12.340;2022-09-09T18:06:51;87296.97;;;15.60;60.34
21623;BME280;10973;46.706;12.340;2022-09-09T18:09:22;87300.84;;;15.56;60.47
21623;BME280;10973;46.706;12.340;2022-09-09T18:11:54;87309.19;;;15.54;61.04
21623;BME280;10973;46.706;12.340;2022-09-09T18:14:25;87309.28;;;15.47;61.44
21623;BME280;10973;46.706;12.340;2022-09-09T18:16:53;87315.00;;;15.46;61.10
21623;BME280;10973;46.706;12.340;2022-09-09T18:19:25;87319.16;;;15.43;61.05
21623;BME280;10973;46.706;12.340;2022-09-09T18:21:52;87312.81;;;15.37;61.14
21623;BME280;10973;46.706;12.340;2022-09-09T18:24:24;87324.16;;;15.38;61.00
21623;BME280;10973;46.706;12.340;2022-09-09T18:26:52;87320.78;;;15.37;61.32
21623;BME280;10973;46.706;12.340;2022-09-09T18:29:22;87326.53;;;15.32;61.45
21623;BME280;10973;46.706;12.340;2022-09-09T18:31:51;87329.22;;;15.29;61.64
21623;BME280;10973;46.706;12.340;2022-09-09T18:34:20;87335.72;;;15.24;61.48
21623;BME280;10973;46.706;12.340;2022-09-09T18:36:52;87331.59;;;15.20;61.32
21623;BME280;10973;46.706;12.340;2022-09-09T18:39:24;87331.25;;;15.18;61.17
21623;BME280;10973;46.706;12.340;2022-09-09T18:41:55;87335.84;;;15.14;61.15
21623;BME280;10973;46.706;12.340;2022-09-09T18:44:33;87334.09;;;15.04;61.20
21623;BME280;10973;46.706;12.340;2022-09-09T18:47:01;87337.53;;;15.00;61.10
21623;BME280;10973;46.706;12.340;2022-09-09T18:49:29;87339.00;;;15.01;60.96
21623;BME280;10973;46.706;12.340;2022-09-09T18:51:56;87344.78;;;14.96;60.85
21623;BME280;10973;46.706;12.340;2022-09-09T18:54:29;87347.09;;;14.91;61.23
21623;BME280;10973;46.706;12.340;2022-09-09T18:56:56;87352.47;;;14.87;61.21
21623;BME280;10973;46.706;12.340;2022-09-09T18:59:24;87355.94;;;14.81;61.11
21623;BME280;10973;46.706;12.340;2022-09-09T19:01:52;87354.84;;;14.75;61.22
21623;BME280;10973;46.706;12.340;2022-09-09T19:04:23;87346.88;;;14.78;60.86
21623;BME280;10973;46.706;12.340;2022-09-09T19:06:51;87361.69;;;14.72;60.83
21623;BME280;10973;46.706;12.340;2022-09-09T19:09:19;87367.41;;;14.71;60.83
21623;BME280;10973;46.706;12.340;2022-09-09T19:11:48;87363.69;;;14.65;61.20
21623;BME280;10973;46.706;12.340;2022-09-09T19:14:19;87369.75;;;14.62;60.99
21623;BME280;10973;46.706;12.340;2022-09-09T19:16:46;87368.66;;;14.59;61.40
21623;BME280;10973;46.706;12.340;2022-09-09T19:19:39;87373.63;;;14.54;61.68
21623;BME280;10973;46.706;12.340;2022-09-09T19:22:06;87370.66;;;14.48;61.65
21623;BME280;10973;46.706;12.340;2022-09-09T19:24:36;87379.00;;;14.47;61.66
21623;BME280;10973;46.706;12.340;2022-09-09T19:27:13;87381.66;;;14.47;61.63
21623;BME280;10973;46.706;12.340;2022-09-09T19:29:40;87387.34;;;14.45;61.67
21623;BME280;10973;46.706;12.340;2022-09-09T19:32:07;87385.84;;;14.44;61.77
21623;BME280;10973;46.706;12.340;2022-09-09T19:34:55;87393.44;;;14.42;61.88
21623;BME280;10973;46.706;12.340;2022-09-09T19:37:22;87399.13;;;14.41;61.89
21623;BME280;10973;46.706;12.340;2022-09-09T19:39:50;87403.28;;;14.38;62.18
21623;BME280;10973;46.706;12.340;2022-09-09T19:42:17;87400.66;;;14.38;62.16
21623;BME280;10973;46.706;12.340;2022-09-09T19:44:45;87397.66;;;14.33;62.26
21623;BME280;10973;46.706;12.340;2022-09-09T19:47:12;87391.97;;;14.38;62.08
21623;BME280;10973;46.706;12.340;2022-09-09T19:49:39;87397.97;;;14.42;62.08
21623;BME280;10973;46.706;12.340;2022-09-09T19:52:12;87405.16;;;14.41;62.04
21623;BME280;10973;46.706;12.340;2022-09-09T19:54:39;87404.41;;;14.41;62.28
21623;BME280;10973;46.706;12.340;2022-09-09T19:57:06;87407.81;;;14.41;62.19
21623;BME280;10973;46.706;12.340;2022-09-09T19:59:34;87397.63;;;14.40;62.01
21623;BME280;10973;46.706;12.340;2022-09-09T20:02:01;87399.50;;;14.39;62.18
21623;BME280;10973;46.706;12.340;2022-09-09T20:04:28;87411.28;;;14.35;61.91
21623;BME280;10973;46.706;12.340;2022-09-09T20:06:56;87408.66;;;14.31;62.00
21623;BME280;10973;46.706;12.340;2022-09-09T20:09:23;87412.47;;;14.30;62.13
21623;BME280;10973;46.706;12.340;2022-09-09T20:11:50;87419.66;;;14.29;61.78
21623;BME280;10973;46.706;12.340;2022-09-09T20:14:17;87418.91;;;14.25;61.90
21623;BME280;10973;46.706;12.340;2022-09-09T20:16:45;87415.91;;;14.23;62.19
21623;BME280;10973;46.706;12.340;2022-09-09T20:19:14;87424.63;;;14.20;62.17
21623;BME280;10973;46.706;12.340;2022-09-09T20:21:44;87433.31;;;14.21;62.28
21623;BME280;10973;46.706;12.340;2022-09-09T20:24:17;87437.09;;;14.23;62.36
21623;BME280;10973;46.706;12.340;2022-09-09T20:26:46;87435.56;;;14.26;62.12
21623;BME280;10973;46.706;12.340;2022-09-09T20:29:18;87441.25;;;14.24;62.30
21623;BME280;10973;46.706;12.340;2022-09-09T20:31:47;87440.09;;;14.25;62.67
21623;BME280;10973;46.706;12.340;2022-09-09T20:34:18;87442.00;;;14.25;62.97
21623;BME280;10973;46.706;12.340;2022-09-09T20:36:46;87451.09;;;14.24;63.01
21623;BME280;10973;46.706;12.340;2022-09-09T20:39:17;87445.47;;;14.18;62.80
21623;BME280;10973;46.706;12.340;2022-09-09T20:41:45;87450.34;;;14.23;62.69
21623;BME280;10973;46.706;12.340;2022-09-09T20:44:16;87438.22;;;14.22;62.91
21623;BME280;10973;46.706;12.340;2022-09-09T20:46:46;87440.88;;;14.22;63.10
21623;BME280;10973;46.706;12.340;2022-09-09T20:49:17;87447.28;;;14.25;63.21
21623;BME280;10973;46.706;12.340;2022-09-09T20:51:47;87446.53;;;14.24;63.26
21623;BME280;10973;46.706;12.340;2022-09-09T20:54:18;87452.59;;;14.25;63.24
21623;BME280;10973;46.706;12.340;2022-09-09T20:56:46;87450.72;;;14.25;63.52
21623;BME280;10973;46.706;12.340;2022-09-09T20:59:20;87446.53;;;14.28;63.27
21623;BME280;10973;46.706;12.340;2022-09-09T21:01:47;87443.50;;;14.29;63.36
21623;BME280;10973;46.706;12.340;2022-09-09T21:04:18;87435.56;;;14.29;63.43
21623;BME280;10973;46.706;12.340;2022-09-09T21:06:47;87425.31;;;14.28;63.22
21623;BME280;10973;46.706;12.340;2022-09-09T21:09:15;87418.50;;;14.27;63.32
21623;BME280;10973;46.706;12.340;2022-09-09T21:11:42;87423.03;;;14.26;63.23
21623;BME280;10973;46.706;12.340;2022-09-09T21:14:10;87424.59;;;14.24;63.48
21623;BME280;10973;46.706;12.340;2022-09-09T21:16:37;87427.63;;;14.22;63.28
21623;BME280;10973;46.706;12.340;2022-09-09T21:19:04;87424.59;;;14.24;63.22
21623;BME280;10973;46.706;12.340;2022-09-09T21:21:31;87426.88;;;14.22;63.30
21623;BME280;10973;46.706;12.340;2022-09-09T21:23:59;87428.03;;;14.21;62.95
21623;BME280;10973;46.706;12.340;2022-09-09T21:26:26;87435.25;;;14.13;63.01
21623;BME280;10973;46.706;12.340;2022-09-09T21:28:54;87427.31;;;14.13;62.82
21623;BME280;10973;46.706;12.340;2022-09-09T21:31:21;87432.25;;;14.15;62.77
21623;BME280;10973;46.706;12.340;2022-09-09T21:33:55;87420.53;;;14.12;62.97
21623;BME280;10973;46.706;12.340;2022-09-09T21:36:24;87427.34;;;14.10;62.98
21623;BME280;10973;46.706;12.340;2022-09-09T21:38:51;87430.00;;;14.06;62.96
21623;BME280;10973;46.706;12.340;2022-09-09T21:41:18;87423.97;;;14.02;63.08
21623;BME280;10973;46.706;12.340;2022-09-09T21:43:51;87421.72;;;14.01;63.08
21623;BME280;10973;46.706;12.340;2022-09-09T21:46:19;87421.72;;;13.97;63.04
21623;BME280;10973;46.706;12.340;2022-09-09T21:48:47;87421.38;;;13.95;63.14
21623;BME280;10973;46.706;12.340;2022-09-09T21:51:16;87427.06;;;13.90;62.97
21623;BME280;10973;46.706;12.340;2022-09-09T21:53:44;87426.72;;;13.92;62.83
21623;BME280;10973;46.706;12.340;2022-09-09T21:56:17;87434.66;;;13.88;62.98
21623;BME280;10973;46.706;12.340;2022-09-09T21:58:45;87439.22;;;13.88;62.79
21623;BME280;10973;46.706;12.340;2022-09-09T22:01:17;87444.91;;;13.83;62.83
21623;BME280;10973;46.706;12.340;2022-09-09T22:03:45;87441.13;;;13.84;62.93
21623;BME280;10973;46.706;12.340;2022-09-09T22:06:15;87440.72;;;13.89;62.80
21623;BME280;10973;46.706;12.340;2022-09-09T22:08:44;87440.75;;;13.85;62.90
21623;BME280;10973;46.706;12.340;2022-09-09T22:11:16;87435.81;;;13.84;62.80
21623;BME280;10973;46.706;12.340;2022-09-09T22:13:44;87431.69;;;13.79;62.85
21623;BME280;10973;46.706;12.340;2022-09-09T22:16:14;87445.28;;;13.81;62.90
21623;BME280;10973;46.706;12.340;2022-09-09T22:18:42;87450.59;;;13.81;62.86
21623;BME280;10973;46.706;12.340;2022-09-09T22:21:13;87447.56;;;13.83;62.93
21623;BME280;10973;46.706;12.340;2022-09-09T22:23:41;87457.03;;;13.80;63.25
21623;BME280;10973;46.706;12.340;2022-09-09T22:26:09;87450.97;;;13.83;63.33
21623;BME280;10973;46.706;12.340;2022-09-09T22:28:37;87445.69;;;13.83;63.33
21623;BME280;10973;46.706;12.340;2022-09-09T22:31:05;87445.66;;;13.87;63.54
21623;BME280;10973;46.706;12.340;2022-09-09T22:33:33;87444.16;;;13.82;63.59
21623;BME280;10973;46.706;12.340;2022-09-09T22:36:00;87448.31;;;13.87;63.58
21623;BME280;10973;46.706;12.340;2022-09-09T22:38:28;87448.69;;;13.85;63.66
21623;BME280;10973;46.706;12.340;2022-09-09T22:40:56;87442.59;;;13.88;63.57
21623;BME280;10973;46.706;12.340;2022-09-09T22:43:23;87444.50;;;13.91;63.52
21623;BME280;10973;46.706;12.340;2022-09-09T22:45:51;87443.72;;;13.94;63.31
21623;BME280;10973;46.706;12.340;2022-09-09T22:48:18;87445.97;;;13.96;63.43
21623;BME280;10973;46.706;12.340;2022-09-09T22:50:46;87443.69;;;13.98;63.52
21623;BME280;10973;46.706;12.340;2022-09-09T22:53:16;87447.09;;;13.98;63.36
21623;BME280;10973;46.706;12.340;2022-09-09T22:55:55;87438.03;;;13.96;63.40
21623;BME280;10973;46.706;12.340;2022-09-09T22:58:23;87444.84;;;13.97;63.20
21623;BME280;10973;46.706;12.340;2022-09-09T23:00:51;87442.59;;;13.92;63.17
21623;BME280;10973;46.706;12.340;2022-09-09T23:03:18;87440.31;;;13.90;63.36
21623;BME280;10973;46.706;12.340;2022-09-09T23:05:53;87447.16;;;13.88;63.46
21623;BME280;10973;46.706;12.340;2022-09-09T23:08:22;87446.00;;;13.89;63.56
21623;BME280;10973;46.706;12.340;2022-09-09T23:10:49;87446.78;;;13.89;63.49
21623;BME280;10973;46.706;12.340;2022-09-09T23:13:17;87452.84;;;13.90;63.56
21623;BME280;10973;46.706;12.340;2022-09-09T23:15:45;87452.06;;;13.89;63.33
21623;BME280;10973;46.706;12.340;2022-09-09T23:18:12;87449.78;;;13.91;63.47
21623;BME280;10973;46.706;12.340;2022-09-09T23:20:40;87452.44;;;13.91;63.33
21623;BME280;10973;46.706;12.340;2022-09-09T23:23:08;87450.56;;;13.88;63.25
21623;BME280;10973;46.706;12.340;2022-09-09T23:25:36;87454.34;;;13.87;63.31
21623;BME280;10973;46.706;12.340;2022-09-09T23:28:04;87452.84;;;13.86;63.28
21623;BME280;10973;46.706;12.340;2022-09-09T23:30:32;87449.06;;;13.84;63.34
21623;BME280;10973;46.706;12.340;2022-09-09T23:32:59;87443.78;;;13.80;63.44
21623;BME280;10973;46.706;12.340;2022-09-09T23:35:27;87444.56;;;13.77;63.42
21623;BME280;10973;46.706;12.340;2022-09-09T23:37:54;87437.78;;;13.76;63.28
21623;BME280;10973;46.706;12.340;2022-09-09T23:40:22;87449.13;;;13.73;63.19
21623;BME280;10973;46.706;12.340;2022-09-09T23:42:49;87451.41;;;13.71;63.23
21623;BME280;10973;46.706;12.340;2022-09-09T23:45:17;87435.91;;;13.66;63.19
21623;BME280;10973;46.706;12.340;2022-09-09T23:47:45;87435.56;;;13.64;63.21
21623;BME280;10973;46.706;12.340;2022-09-09T23:50:12;87432.16;;;13.64;63.45
21623;BME280;10973;46.706;12.340;2022-09-09T23:52:40;87422.72;;;13.63;63.54
21623;BME280;10973;46.706;12.340;2022-09-09T23:55:08;87432.53;;;13.62;63.45
21623;BME280;10973;46.706;12.340;2022-09-09T23:57:36;87425.72;;;13.61;63.32
